Time;durP1;ratioP1;P1;durP2;ratioP2;P2;SDS_P1;SDS_P2;PMS_P1;PMS_P2;Temp;Humidity;BMP_temperature;BMP_pressure;BME280_temperature;BME280_humidity;BME280_pressure;Samples;Min_cycle;Max_cycle;Signal;HPM_P1;HPM_P2
2023/04/07 00:01:53;;;;;;;11.80;4.95;;;;;;;7.79;100.00;101498.75;6187823;23;20514;-77
2023/04/07 00:04:20;;;;;;;8.02;5.30;;;;;;;7.77;100.00;101498.38;6190583;23;20041;-77
2023/04/07 00:06:46;;;;;;;8.65;5.28;;;;;;;7.75;100.00;101498.03;6189237;23;20097;-78
2023/04/07 00:09:13;;;;;;;8.15;5.88;;;;;;;7.72;100.00;101498.84;6188461;23;20079;-78
2023/04/07 00:11:39;;;;;;;8.13;5.60;;;;;;;7.70;100.00;101496.59;6188812;23;20448;-77
2023/04/07 00:14:06;;;;;;;8.75;5.78;;;;;;;7.70;100.00;101501.88;6188359;23;20014;-77
2023/04/07 00:16:33;;;;;;;11.07;5.45;;;;;;;7.70;100.00;101495.84;6189275;23;20021;-77
2023/04/07 00:18:59;;;;;;;8.35;5.60;;;;;;;7.69;100.00;101502.28;6190355;23;20040;-77
2023/04/07 00:21:26;;;;;;;13.70;6.03;;;;;;;7.69;100.00;101505.69;6187529;23;20017;-77
2023/04/07 00:23:53;;;;;;;7.13;5.78;;;;;;;7.69;100.00;101499.63;6188648;23;20013;-77
2023/04/07 00:26:20;;;;;;;10.85;6.35;;;;;;;7.69;100.00;101503.03;6188340;23;20041;-77
2023/04/07 00:28:46;;;;;;;12.25;6.72;;;;;;;7.67;100.00;101505.34;6189132;23;20486;-78
2023/04/07 00:31:13;;;;;;;8.07;6.05;;;;;;;7.67;100.00;101504.59;6186817;23;20013;-77
2023/04/07 00:33:40;;;;;;;7.57;6.57;;;;;;;7.67;100.00;101507.22;6212219;23;20395;-77
2023/04/07 00:36:06;;;;;;;12.88;6.32;;;;;;;7.65;100.00;101510.28;6188145;23;20026;-77
2023/04/07 00:38:33;;;;;;;10.23;6.35;;;;;;;7.63;100.00;101509.94;6188401;23;20020;-77
2023/04/07 00:41:00;;;;;;;8.30;6.25;;;;;;;7.63;100.00;101501.97;6188097;23;20014;-77
2023/04/07 00:43:26;;;;;;;13.35;6.15;;;;;;;7.61;100.00;101506.94;6188107;23;20435;-77
2023/04/07 00:45:53;;;;;;;10.25;6.45;;;;;;;7.63;100.00;101496.69;6188997;23;20026;-77
2023/04/07 00:48:20;;;;;;;8.48;6.88;;;;;;;7.61;100.00;101511.47;6211804;23;20507;-77
2023/04/07 00:50:47;;;;;;;10.25;6.72;;;;;;;7.60;100.00;101500.13;6189782;23;20017;-77
2023/04/07 00:53:14;;;;;;;12.98;6.50;;;;;;;7.61;100.00;101512.22;6186568;23;20028;-77
2023/04/07 00:55:41;;;;;;;10.20;6.50;;;;;;;7.58;100.00;101501.72;6190232;23;20025;-77
2023/04/07 00:58:08;;;;;;;7.70;5.97;;;;;;;7.59;100.00;101508.50;6187738;23;20061;-76
2023/04/07 01:00:42;;;;;;;8.65;6.65;;;;;;;7.59;100.00;101501.31;6188419;23;20053;-77
2023/04/07 01:03:16;;;;;;;9.18;6.93;;;;;;;7.57;100.00;101500.97;6187788;23;20022;-76
2023/04/07 01:06:05;;;;;;;8.85;6.28;;;;;;;7.58;100.00;101507.75;6190250;23;20072;-77
2023/04/07 01:08:42;;;;;;;8.55;6.10;;;;;;;7.58;100.00;101501.72;6187481;23;20100;-77
2023/04/07 01:11:19;;;;;;;11.02;6.05;;;;;;;7.56;100.00;101504.00;6187863;23;20018;-76
2023/04/07 01:13:52;;;;;;;12.23;6.18;;;;;;;7.56;100.00;101510.06;6188517;23;20037;-77
2023/04/07 01:16:38;;;;;;;9.02;6.22;;;;;;;7.55;100.00;101503.25;6190317;23;20450;-77
2023/04/07 01:19:29;;;;;;;10.35;6.60;;;;;;;7.56;100.00;101502.09;6187788;23;20060;-77
2023/04/07 01:21:59;;;;;;;12.10;7.18;;;;;;;7.55;100.00;101503.25;6214272;23;20010;-76
2023/04/07 01:24:51;;;;;;;10.35;6.72;;;;;;;7.55;100.00;101505.16;6187944;23;20022;-76
2023/04/07 01:27:33;;;;;;;8.38;6.25;;;;;;;7.58;100.00;101504.34;6189471;23;20017;-76
2023/04/07 01:30:02;;;;;;;10.40;6.50;;;;;;;7.56;100.00;101507.41;6188312;23;20060;-77
2023/04/07 01:32:30;;;;;;;11.07;7.05;;;;;;;7.56;100.00;101511.94;6187781;23;20022;-76
2023/04/07 01:34:58;;;;;;;12.00;7.53;;;;;;;7.56;100.00;101514.59;6189877;23;20052;-76
2023/04/07 01:37:26;;;;;;;12.73;7.00;;;;;;;7.55;100.00;101511.19;6189268;23;20252;-78
2023/04/07 01:39:53;;;;;;;11.18;6.88;;;;;;;7.56;100.00;101510.06;6188099;23;20022;-78
2023/04/07 01:42:20;;;;;;;17.13;7.75;;;;;;;7.54;100.00;101514.25;6188801;23;20013;-78
2023/04/07 01:44:48;;;;;;;10.70;6.60;;;;;;;7.54;100.00;101511.59;6188851;23;20018;-78
2023/04/07 01:47:15;;;;;;;13.27;7.95;;;;;;;7.54;100.00;101511.59;6187887;23;20018;-78
2023/04/07 01:49:44;;;;;;;17.58;7.63;;;;;;;7.53;100.00;101510.09;6189898;23;20106;-78
2023/04/07 01:52:12;;;;;;;10.18;6.90;;;;;;;7.54;100.00;101508.94;6187048;23;20021;-78
2023/04/07 01:54:38;;;;;;;14.50;7.13;;;;;;;7.55;100.00;101510.44;6190637;23;20013;-78
2023/04/07 01:57:05;;;;;;;11.63;7.22;;;;;;;7.54;100.00;101508.94;6189490;23;20025;-76
2023/04/07 01:59:32;;;;;;;15.60;8.10;;;;;;;7.53;100.00;101507.44;6188487;23;20025;-77
2023/04/07 02:01:59;;;;;;;16.77;8.70;;;;;;;7.54;100.00;101503.66;6187892;23;20018;-76
2023/04/07 02:04:31;;;;;;;13.63;8.10;;;;;;;7.52;100.00;101503.31;6187410;23;20017;-77
2023/04/07 02:07:08;;;;;;;11.48;7.65;;;;;;;7.53;100.00;101507.44;6187486;23;20080;-77
2023/04/07 02:09:42;;;;;;;16.30;7.57;;;;;;;7.53;100.00;101504.81;6189639;23;20017;-78
2023/04/07 02:12:11;;;;;;;15.27;8.23;;;;;;;7.52;100.00;101506.69;6187282;23;20017;-77
2023/04/07 02:14:43;;;;;;;14.65;8.40;;;;;;;7.54;100.00;101511.59;6188360;23;20024;-77
2023/04/07 02:17:14;;;;;;;15.88;8.85;;;;;;;7.54;100.00;101506.31;6187312;23;20344;-78
2023/04/07 02:19:43;;;;;;;11.75;8.55;;;;;;;7.55;100.00;101513.84;6187989;23;20049;-76
2023/04/07 02:22:11;;;;;;;12.60;8.13;;;;;;;7.54;100.00;101512.34;6188848;23;20052;-76
2023/04/07 02:24:41;;;;;;;12.77;8.88;;;;;;;7.53;100.00;101510.84;6187996;23;20431;-76
2023/04/07 02:27:08;;;;;;;16.73;8.93;;;;;;;7.53;100.00;101508.19;6187195;23;20053;-76
2023/04/07 02:29:34;;;;;;;12.57;8.43;;;;;;;7.55;100.00;101513.09;6213163;23;20025;-77
2023/04/07 02:32:01;;;;;;;13.38;8.35;;;;;;;7.55;100.00;101524.44;6189623;23;20089;-76
2023/04/07 02:34:28;;;;;;;11.90;8.57;;;;;;;7.55;100.00;101521.06;6188895;23;20013;-76
2023/04/07 02:36:54;;;;;;;14.27;7.85;;;;;;;7.55;100.00;101513.09;6188974;23;20113;-77
2023/04/07 02:39:21;;;;;;;17.20;8.35;;;;;;;7.54;100.00;101512.34;6189855;23;20017;-76
2023/04/07 02:41:47;;;;;;;14.68;8.23;;;;;;;7.56;100.00;101507.41;6189131;23;20018;-78
2023/04/07 02:44:14;;;;;;;14.68;8.25;;;;;;;7.56;100.00;101510.06;6188923;23;20013;-78
2023/04/07 02:46:41;;;;;;;15.85;8.18;;;;;;;7.57;100.00;101508.91;6189759;23;20041;-78
2023/04/07 02:49:08;;;;;;;16.05;7.47;;;;;;;7.55;100.00;101513.84;6188318;23;20375;-78
2023/04/07 02:51:37;;;;;;;21.58;8.00;;;;;;;7.56;100.00;101514.59;6189673;23;20014;-78
2023/04/07 02:54:03;;;;;;;13.15;7.45;;;;;;;7.55;100.00;101513.09;6212648;23;20029;-78
2023/04/07 02:56:30;;;;;;;10.93;7.47;;;;;;;7.54;100.00;101515.00;6190167;23;20022;-77
2023/04/07 02:58:56;;;;;;;14.90;7.57;;;;;;;7.55;100.00;101513.09;6189422;23;20045;-78
2023/04/07 03:01:24;;;;;;;14.57;7.78;;;;;;;7.55;100.00;101519.16;6212677;23;20025;-77
2023/04/07 03:03:50;;;;;;;17.17;7.53;;;;;;;7.56;100.00;101518.00;6189131;23;20033;-77
2023/04/07 03:06:21;;;;;;;12.23;8.00;;;;;;;7.55;100.00;101518.41;6187819;23;20018;-78
2023/04/07 03:08:59;;;;;;;12.70;7.20;;;;;;;7.55;100.00;101518.41;6187067;23;20021;-77
2023/04/07 03:11:26;;;;;;;14.63;7.30;;;;;;;7.56;100.00;101522.56;6188717;23;20451;-78
2023/04/07 03:13:55;;;;;;;13.23;7.00;;;;;;;7.55;100.00;101524.44;6187287;23;20073;-78
2023/04/07 03:16:23;;;;;;;13.68;7.40;;;;;;;7.56;100.00;101525.19;6187145;23;20084;-77
2023/04/07 03:19:01;;;;;;;15.52;6.82;;;;;;;7.55;100.00;101527.09;6187117;23;20018;-77
2023/04/07 03:21:31;;;;;;;15.70;7.10;;;;;;;7.53;100.00;101521.44;6187726;23;20018;-78
2023/04/07 03:23:58;;;;;;;20.25;6.68;;;;;;;7.52;100.00;101524.50;6189177;23;20399;-77
2023/04/07 03:26:24;;;;;;;13.88;6.53;;;;;;;7.51;100.00;101521.09;6188654;23;20355;-77
2023/04/07 03:28:51;;;;;;;15.18;6.43;;;;;;;7.48;100.00;101523.78;6187663;23;20021;-77
2023/04/07 03:31:18;;;;;;;18.88;7.13;;;;;;;7.48;100.00;101523.78;6187023;23;20029;-77
2023/04/07 03:33:50;;;;;;;14.73;6.22;;;;;;;7.47;100.00;101520.38;6186994;23;20080;-78
2023/04/07 03:36:18;;;;;;;9.18;5.50;;;;;;;7.46;100.00;101521.53;6186742;23;20056;-78
2023/04/07 03:38:47;;;;;;;12.95;5.60;;;;;;;7.46;100.00;101526.09;6187574;23;20048;-77
2023/04/07 03:41:15;;;;;;;14.25;5.93;;;;;;;7.44;100.00;101523.84;6187470;23;20029;-77
2023/04/07 03:43:43;;;;;;;13.82;6.15;;;;;;;7.46;100.00;101524.19;6187413;23;20509;-77
2023/04/07 03:46:10;;;;;;;12.43;5.85;;;;;;;7.45;100.00;101524.59;6186964;23;20028;-77
2023/04/07 03:48:37;;;;;;;14.02;6.53;;;;;;;7.47;100.00;101530.22;6187076;23;20021;-78
2023/04/07 03:51:07;;;;;;;22.83;6.40;;;;;;;7.46;100.00;101524.19;6188857;23;20017;-78
2023/04/07 03:53:34;;;;;;;17.48;5.70;;;;;;;7.49;100.00;101527.94;6188139;23;20025;-77
2023/04/07 03:56:12;;;;;;;23.65;6.50;;;;;;;7.47;100.00;101523.03;6189490;23;20081;-78
2023/04/07 03:58:43;;;;;;;17.00;5.83;;;;;;;7.49;100.00;101525.28;6187763;23;20021;-78
2023/04/07 04:01:15;;;;;;;13.55;6.05;;;;;;;7.49;100.00;101522.63;6187162;23;20230;-77
2023/04/07 04:03:43;;;;;;;11.40;5.25;;;;;;;7.47;100.00;101523.03;6186823;23;20025;-77
2023/04/07 04:06:26;;;;;;;22.38;6.07;;;;;;;7.46;100.00;101520.78;6188980;23;20512;-77
2023/04/07 04:08:58;;;;;;;10.02;5.53;;;;;;;7.45;100.00;101527.97;6186929;23;20478;-77
2023/04/07 04:11:26;;;;;;;10.60;5.80;;;;;;;7.45;100.00;101527.97;6187265;23;20404;-78
2023/04/07 04:13:58;;;;;;;11.90;5.80;;;;;;;7.45;100.00;101532.53;6188917;23;20440;-77
2023/04/07 04:16:25;;;;;;;12.10;5.82;;;;;;;7.44;100.00;101536.31;6186960;23;20236;-78
2023/04/07 04:18:55;;;;;;;16.65;6.03;;;;;;;7.42;100.00;101526.13;6187270;23;20088;-78
2023/04/07 04:21:22;;;;;;;14.13;5.25;;;;;;;7.39;100.00;101534.88;6186910;23;20026;-77
2023/04/07 04:23:49;;;;;;;9.88;5.72;;;;;;;7.40;100.00;101536.38;6187692;23;20049;-77
2023/04/07 04:26:16;;;;;;;20.52;6.25;;;;;;;7.43;100.00;101540.13;6188395;23;20048;-77
2023/04/07 04:28:44;;;;;;;16.25;6.18;;;;;;;7.43;100.00;101537.47;6188761;23;20101;-78
2023/04/07 04:31:12;;;;;;;13.10;6.18;;;;;;;7.45;100.00;101543.13;6186729;23;20367;-78
2023/04/07 04:33:41;;;;;;;22.17;6.68;;;;;;;7.46;100.00;101544.63;6187153;23;20093;-77
2023/04/07 04:36:09;;;;;;;13.57;6.28;;;;;;;7.48;100.00;101550.28;6161852;23;20407;-77
2023/04/07 04:38:35;;;;;;;11.02;5.93;;;;;;;7.49;100.00;101552.53;6189151;23;20018;-78
2023/04/07 04:41:15;;;;;;;17.05;5.90;;;;;;;7.49;100.00;101544.59;6186833;23;20494;-77
2023/04/07 04:43:42;;;;;;;11.15;5.90;;;;;;;7.48;100.00;101555.59;6187065;23;20032;-78
2023/04/07 04:46:12;;;;;;;14.35;6.00;;;;;;;7.50;100.00;101558.59;6186811;23;20022;-77
2023/04/07 04:48:41;;;;;;;19.05;6.47;;;;;;;7.49;100.00;101567.69;6187042;23;20018;-78
2023/04/07 04:51:08;;;;;;;11.63;5.70;;;;;;;7.50;100.00;101563.88;6186519;23;20021;-77
2023/04/07 04:53:36;;;;;;;12.80;6.82;;;;;;;7.50;100.00;101575.22;6187102;23;20036;-77
2023/04/07 04:56:05;;;;;;;15.43;6.22;;;;;;;7.49;100.00;101572.97;6186606;23;20022;-77
2023/04/07 04:58:39;;;;;;;14.45;6.13;;;;;;;7.48;100.00;101571.47;6187354;23;20018;-77
2023/04/07 05:01:07;;;;;;;15.23;6.35;;;;;;;7.48;100.00;101576.78;6185605;23;20076;-77
2023/04/07 05:03:39;;;;;;;12.50;5.75;;;;;;;7.48;100.00;101576.78;6187681;23;20022;-77
2023/04/07 05:06:14;;;;;;;12.68;5.63;;;;;;;7.48;100.00;101579.44;6186224;23;20018;-77
2023/04/07 05:08:42;;;;;;;10.35;5.28;;;;;;;7.48;100.00;101577.53;6186890;23;20032;-77
2023/04/07 05:11:11;;;;;;;15.90;5.40;;;;;;;7.48;100.00;101577.53;6186245;23;20026;-77
2023/04/07 05:13:39;;;;;;;8.82;5.15;;;;;;;7.47;100.00;101578.66;6186770;23;20017;-77
2023/04/07 05:16:06;;;;;;;5.90;4.22;;;;;;;7.49;100.00;101583.56;6187707;23;20048;-76
2023/04/07 05:18:34;;;;;;;12.00;4.68;;;;;;;7.48;100.00;101585.47;6188198;23;20022;-76
2023/04/07 05:21:02;;;;;;;10.35;5.15;;;;;;;7.48;100.00;101585.47;6186581;23;20503;-76
2023/04/07 05:23:30;;;;;;;13.30;4.95;;;;;;;7.49;100.00;101589.63;6186885;23;20426;-77
2023/04/07 05:25:57;;;;;;;9.25;4.65;;;;;;;7.50;100.00;101582.44;6161812;23;20026;-76
2023/04/07 05:28:24;;;;;;;7.75;4.63;;;;;;;7.50;100.00;101587.72;6186044;23;20018;-76
2023/04/07 05:30:53;;;;;;;11.07;4.68;;;;;;;7.50;100.00;101590.38;6187009;23;20114;-76
2023/04/07 05:33:25;;;;;;;10.35;4.95;;;;;;;7.51;100.00;101586.59;6186129;23;20017;-77
2023/04/07 05:35:52;;;;;;;9.65;4.70;;;;;;;7.51;100.00;101597.19;6186095;23;20463;-77
2023/04/07 05:38:19;;;;;;;10.57;4.88;;;;;;;7.50;100.00;101596.44;6185951;23;20020;-77
2023/04/07 05:40:47;;;;;;;6.28;4.68;;;;;;;7.52;100.00;101599.44;6187866;23;20073;-77
2023/04/07 05:43:20;;;;;;;8.25;5.05;;;;;;;7.53;100.00;101600.94;6187148;23;20021;-77
2023/04/07 05:45:48;;;;;;;7.82;5.35;;;;;;;7.51;100.00;101592.63;6193449;23;20025;-76
2023/04/07 05:48:15;;;;;;;18.83;5.32;;;;;;;7.51;100.00;101603.22;6187429;23;20045;-77
2023/04/07 05:50:44;;;;;;;11.70;5.22;;;;;;;7.50;100.00;101603.63;6188033;23;20056;-77
2023/04/07 05:53:15;;;;;;;9.32;5.18;;;;;;;7.52;100.00;101603.97;6187532;23;20101;-77
2023/04/07 05:55:42;;;;;;;7.63;4.95;;;;;;;7.51;100.00;101605.88;6190031;23;20018;-77
2023/04/07 05:58:12;;;;;;;12.07;4.57;;;;;;;7.53;100.00;101606.22;6163334;23;20022;-76
2023/04/07 06:00:43;;;;;;;8.32;4.45;;;;;;;7.53;100.00;101605.47;6189326;23;20049;-78
2023/04/07 06:03:13;;;;;;;9.80;4.55;;;;;;;7.51;100.00;101608.53;6188305;23;20028;-76
2023/04/07 06:05:52;;;;;;;8.75;3.92;;;;;;;7.53;100.00;101610.78;6188917;23;20025;-76
2023/04/07 06:08:20;;;;;;;7.65;4.18;;;;;;;7.53;100.00;101614.19;6188332;23;20474;-75
2023/04/07 06:10:47;;;;;;;8.65;3.78;;;;;;;7.53;100.00;101616.09;6188669;23;20048;-77
2023/04/07 06:13:13;;;;;;;9.27;3.95;;;;;;;7.51;100.00;101613.81;6189527;23;20513;-75
2023/04/07 06:15:41;;;;;;;5.47;3.92;;;;;;;7.54;100.00;101625.53;6188726;23;20030;-75
2023/04/07 06:18:08;;;;;;;7.03;3.97;;;;;;;7.54;100.00;101628.94;6188342;23;20022;-77
2023/04/07 06:20:35;;;;;;;10.65;4.40;;;;;;;7.55;100.00;101622.50;6190638;23;20072;-77
2023/04/07 06:23:01;;;;;;;10.48;4.13;;;;;;;7.55;100.00;101627.03;6189836;23;20053;-76
2023/04/07 06:25:28;;;;;;;4.90;3.58;;;;;;;7.54;100.00;101626.28;6190374;23;20022;-75
2023/04/07 06:27:55;;;;;;;8.10;4.20;;;;;;;7.57;100.00;101627.41;6189909;23;20010;-75
2023/04/07 06:30:21;;;;;;;6.40;4.28;;;;;;;7.57;100.00;101635.34;6189184;23;20052;-77
2023/04/07 06:32:50;;;;;;;9.80;4.18;;;;;;;7.58;100.00;101632.28;6188536;23;20087;-77
2023/04/07 06:35:17;;;;;;;6.55;4.20;;;;;;;7.59;100.00;101635.69;6189950;23;20041;-77
2023/04/07 06:37:43;;;;;;;8.50;4.45;;;;;;;7.62;100.00;101632.97;6190503;23;20044;-77
2023/04/07 06:40:10;;;;;;;8.95;4.55;;;;;;;7.65;100.00;101634.84;6188348;23;20018;-77
2023/04/07 06:42:36;;;;;;;11.68;4.18;;;;;;;7.66;100.00;101633.69;6187848;23;20033;-77
2023/04/07 06:45:10;;;;;;;9.50;4.43;;;;;;;7.69;100.00;101638.19;6188224;23;20029;-77
2023/04/07 06:47:37;;;;;;;8.65;4.57;;;;;;;7.74;100.00;101644.97;6192720;23;20478;-78
2023/04/07 06:50:04;;;;;;;7.82;4.28;;;;;;;7.76;100.00;101639.25;6189974;23;20024;-78
2023/04/07 06:52:31;;;;;;;8.43;4.20;;;;;;;7.81;100.00;101646.78;6190141;23;20072;-76
2023/04/07 06:54:58;;;;;;;10.23;4.90;;;;;;;7.82;100.00;101651.69;6189787;23;20029;-78
2023/04/07 06:57:25;;;;;;;16.30;4.97;;;;;;;7.81;100.00;101654.72;6189744;23;20014;-76
2023/04/07 06:59:51;;;;;;;6.55;5.03;;;;;;;7.81;100.00;101655.47;6188794;23;20022;-76
2023/04/07 07:02:18;;;;;;;12.38;5.07;;;;;;;7.85;100.00;101650.88;6190087;23;20020;-77
2023/04/07 07:04:45;;;;;;;11.65;5.20;;;;;;;7.87;100.00;101655.78;6191220;23;20022;-78
2023/04/07 07:07:11;;;;;;;13.77;5.30;;;;;;;7.89;100.00;101662.19;6188215;23;20045;-77
2023/04/07 07:09:38;;;;;;;9.77;5.68;;;;;;;7.94;100.00;101658.34;6189905;23;20017;-77
2023/04/07 07:12:05;;;;;;;18.20;6.43;;;;;;;8.02;100.00;101663.16;6189162;23;20014;-77
2023/04/07 07:14:31;;;;;;;11.57;5.75;;;;;;;8.06;100.00;101660.47;6190154;23;20099;-77
2023/04/07 07:16:58;;;;;;;11.10;5.72;;;;;;;8.11;100.00;101659.25;6189735;23;20021;-76
2023/04/07 07:19:24;;;;;;;15.88;5.97;;;;;;;8.15;100.00;101666.03;6191602;23;20006;-77
2023/04/07 07:21:51;;;;;;;11.85;6.22;;;;;;;8.21;100.00;101666.31;6189891;23;20013;-77
2023/04/07 07:24:17;;;;;;;16.25;6.47;;;;;;;8.23;100.00;101670.09;6189454;23;20045;-77
2023/04/07 07:26:44;;;;;;;13.55;5.88;;;;;;;8.26;100.00;101677.25;6189789;23;20013;-77
2023/04/07 07:29:11;;;;;;;11.57;5.60;;;;;;;8.26;100.00;101677.25;6189851;23;20024;-77
2023/04/07 07:31:37;;;;;;;15.13;5.72;;;;;;;8.26;100.00;101679.91;6189890;23;20131;-78
2023/04/07 07:34:05;;;;;;;12.27;5.80;;;;;;;8.25;100.00;101678.38;6189489;23;20022;-77
2023/04/07 07:36:32;;;;;;;10.63;5.28;;;;;;;8.27;100.00;101683.31;6190301;23;20068;-77
2023/04/07 07:38:58;;;;;;;11.98;5.00;;;;;;;8.31;100.00;101689.31;6188759;23;20386;-78
2023/04/07 07:41:25;;;;;;;12.85;5.70;;;;;;;8.32;100.00;101691.59;6189597;23;20014;-77
2023/04/07 07:43:51;;;;;;;10.63;4.65;;;;;;;8.36;100.00;101691.53;6189279;23;20017;-77
2023/04/07 07:46:18;;;;;;;11.43;5.70;;;;;;;8.35;100.00;101690.78;6189244;23;20100;-77
2023/04/07 07:48:45;;;;;;;15.88;5.15;;;;;;;8.33;100.00;101695.00;6187797;23;20488;-78
2023/04/07 07:51:12;;;;;;;12.80;5.10;;;;;;;8.34;100.00;101696.50;6163834;23;20018;-77
2023/04/07 07:53:38;;;;;;;8.95;4.97;;;;;;;8.34;100.00;101694.59;6189028;23;20097;-77
2023/04/07 07:56:05;;;;;;;13.15;5.13;;;;;;;8.41;100.00;101703.59;6189144;23;20356;-77
2023/04/07 07:58:31;;;;;;;13.63;5.00;;;;;;;8.50;100.00;101706.50;6188045;23;20024;-78
2023/04/07 08:00:58;;;;;;;10.88;4.78;;;;;;;8.53;100.00;101705.69;6187525;23;20230;-77
2023/04/07 08:03:24;;;;;;;6.95;4.50;;;;;;;8.57;100.00;101706.41;6188672;23;20337;-78
2023/04/07 08:05:51;;;;;;;9.48;4.95;;;;;;;8.61;100.00;101712.41;6188656;23;20479;-76
2023/04/07 08:08:18;;;;;;;8.18;4.65;;;;;;;8.66;100.00;101712.72;6188377;23;20037;-77
2023/04/07 08:10:45;;;;;;;9.73;4.18;;;;;;;8.67;100.00;101710.81;6189207;23;20036;-77
2023/04/07 08:13:11;;;;;;;9.43;4.55;;;;;;;8.74;100.00;101718.66;6186896;23;20044;-77
2023/04/07 08:15:38;;;;;;;11.68;4.10;;;;;;;8.82;100.00;101728.00;6189068;23;20130;-77
2023/04/07 08:18:05;;;;;;;5.78;3.72;;;;;;;8.90;100.00;101716.13;6188838;23;20180;-77
2023/04/07 08:20:33;;;;;;;9.32;3.40;;;;;;;8.95;100.00;101728.94;6189111;23;20029;-77
2023/04/07 08:23:01;;;;;;;7.53;3.95;;;;;;;9.03;100.00;101725.03;6186674;23;20025;-77
2023/04/07 08:25:27;;;;;;;16.42;3.83;;;;;;;9.10;100.00;101734.03;6188985;23;20014;-77
2023/04/07 08:27:54;;;;;;;6.28;3.15;;;;;;;9.18;100.00;101730.09;6189038;23;20048;-77
2023/04/07 08:30:21;;;;;;;6.40;2.70;;;;;;;9.25;100.00;101730.72;6188695;23;20017;-79
2023/04/07 08:32:48;;;;;;;7.00;2.53;;;;;;;9.38;100.00;101725.56;6189318;23;20510;-78
2023/04/07 08:35:15;;;;;;;5.57;2.53;;;;;;;9.49;99.07;101731.44;6188746;23;20013;-79
2023/04/07 08:37:43;;;;;;;8.43;2.90;;;;;;;9.49;97.26;101731.44;6188719;23;20513;-79
2023/04/07 08:40:10;;;;;;;9.88;2.70;;;;;;;9.47;97.79;101739.06;6189414;23;20013;-78
2023/04/07 08:42:41;;;;;;;6.95;2.90;;;;;;;9.57;96.71;101738.16;6188953;23;20022;-77
2023/04/07 08:45:08;;;;;;;7.05;2.42;;;;;;;9.67;94.81;101731.09;6188852;23;20018;-76
2023/04/07 08:47:36;;;;;;;8.32;2.92;;;;;;;9.73;94.27;101734.03;6189004;23;20045;-77
2023/04/07 08:50:06;;;;;;;9.25;2.80;;;;;;;9.76;94.32;101730.56;6188698;23;20070;-77
2023/04/07 08:52:54;;;;;;;8.32;3.10;;;;;;;9.81;93.24;101743.38;6188655;23;20460;-77
2023/04/07 08:55:21;;;;;;;9.70;2.97;;;;;;;9.86;91.98;101734.94;6189459;23;20324;-78
2023/04/07 08:57:48;;;;;;;8.57;2.70;;;;;;;9.95;92.24;101748.44;6189112;23;20018;-80
2023/04/07 09:00:14;;;;;;;7.05;2.65;;;;;;;10.00;91.26;101748.69;6186923;23;20018;-78
2023/04/07 09:02:47;;;;;;;8.60;2.70;;;;;;;9.99;90.17;101746.47;6189214;23;20402;-79
2023/04/07 09:05:14;;;;;;;9.18;2.60;;;;;;;9.93;90.67;101753.41;6188724;23;20018;-77
2023/04/07 09:07:44;;;;;;;8.45;2.42;;;;;;;9.86;90.14;101758.88;6188482;23;20021;-77
2023/04/07 09:10:11;;;;;;;6.25;3.10;;;;;;;9.79;91.41;101764.31;6187050;23;20455;-76
2023/04/07 09:12:37;;;;;;;13.38;2.92;;;;;;;9.76;90.84;101754.50;6189871;23;20052;-76
2023/04/07 09:15:07;;;;;;;10.10;2.30;;;;;;;9.81;90.81;101769.97;6189521;23;20084;-77
2023/04/07 09:17:34;;;;;;;5.53;2.47;;;;;;;9.87;90.93;101766.44;6190417;23;20053;-76
2023/04/07 09:20:01;;;;;;;5.78;2.38;;;;;;;9.91;90.66;101766.38;6189563;23;20018;-76
2023/04/07 09:22:46;;;;;;;7.85;2.60;;;;;;;9.96;90.51;101769.31;6189644;23;20024;-76
2023/04/07 09:25:12;;;;;;;5.63;2.10;;;;;;;9.99;89.93;101767.75;6189903;23;20017;-77
2023/04/07 09:27:39;;;;;;;6.25;2.28;;;;;;;9.97;88.81;101760.19;6190725;23;20068;-76
2023/04/07 09:30:14;;;;;;;9.35;3.10;;;;;;;9.91;89.26;101767.13;6190008;23;20507;-76
2023/04/07 09:32:41;;;;;;;6.50;2.85;;;;;;;9.89;89.39;101763.38;6190632;23;20080;-75
2023/04/07 09:35:08;;;;;;;7.07;2.40;;;;;;;9.89;89.69;101766.78;6189134;23;20017;-76
2023/04/07 09:37:34;;;;;;;7.75;2.78;;;;;;;9.96;89.56;101768.56;6188740;23;20088;-76
2023/04/07 09:40:01;;;;;;;4.53;2.58;;;;;;;9.95;89.71;101769.72;6189927;23;20022;-76
2023/04/07 09:42:31;;;;;;;8.05;2.47;;;;;;;10.00;89.29;101769.97;6189633;23;20036;-76
2023/04/07 09:44:59;;;;;;;6.20;2.40;;;;;;;10.03;88.57;101774.47;6189875;23;20017;-76
2023/04/07 09:47:31;;;;;;;8.55;2.78;;;;;;;10.11;88.75;101771.69;6188627;23;20014;-76
2023/04/07 09:50:05;;;;;;;7.13;2.55;;;;;;;10.14;87.83;101776.94;6189151;23;20017;-75
2023/04/07 09:52:51;;;;;;;7.80;2.30;;;;;;;10.17;87.24;101773.44;6190138;23;20439;-76
2023/04/07 09:55:22;;;;;;;7.22;2.38;;;;;;;10.17;87.93;101778.03;6189689;23;20410;-76
2023/04/07 09:57:49;;;;;;;3.78;2.35;;;;;;;10.13;87.59;101780.00;6190108;23;20013;-75
2023/04/07 10:00:16;;;;;;;4.03;1.90;;;;;;;10.14;87.77;101776.94;6190600;23;20462;-77
2023/04/07 10:02:43;;;;;;;4.97;2.60;;;;;;;10.16;88.05;101779.19;6190315;23;20494;-75
2023/04/07 10:05:10;;;;;;;9.48;2.85;;;;;;;10.16;88.06;101787.16;6188993;23;20400;-76
2023/04/07 10:07:37;;;;;;;8.85;2.30;;;;;;;10.24;87.68;101786.63;6190100;23;20047;-76
2023/04/07 10:10:07;;;;;;;5.65;2.10;;;;;;;10.32;86.35;101787.25;6189805;23;20097;-76
2023/04/07 10:12:36;;;;;;;3.80;2.20;;;;;;;10.35;86.70;101784.53;6190001;23;20025;-76
2023/04/07 10:15:03;;;;;;;5.93;2.30;;;;;;;10.38;85.95;101785.59;6190412;23;20013;-76
2023/04/07 10:17:31;;;;;;;4.82;2.35;;;;;;;10.24;86.66;101783.97;6190450;23;20045;-77
2023/04/07 10:20:00;;;;;;;3.95;2.47;;;;;;;10.22;85.89;101788.22;6187145;23;20088;-75
2023/04/07 10:22:28;;;;;;;2.58;2.10;;;;;;;10.14;85.63;101786.81;6190147;23;20352;-76
2023/04/07 10:25:10;;;;;;;4.70;1.98;;;;;;;10.12;85.79;101791.81;6189668;23;20024;-77
2023/04/07 10:27:53;;;;;;;;;;;;;;;10.12;86.41;101795.22;6189049;23;20020;-76
2023/04/07 10:30:25;;;;;;;3.13;1.92;;;;;;;10.13;85.96;101804.69;6189914;23;19948;-76
2023/04/07 10:32:53;;;;;;;4.40;2.10;;;;;;;10.17;85.63;101796.66;6190077;23;20025;-76
2023/04/07 10:35:20;;;;;;;3.85;1.70;;;;;;;10.18;85.51;101798.91;6189660;23;20377;-76
2023/04/07 10:38:05;;;;;;;5.32;1.90;;;;;;;10.25;85.22;101804.09;6190008;23;20013;-77
2023/04/07 10:40:34;;;;;;;7.32;2.72;;;;;;;10.28;84.86;101805.19;6190133;23;20009;-77
2023/04/07 10:43:01;;;;;;;5.97;2.00;;;;;;;10.30;84.58;101810.88;6189387;23;20021;-76
2023/04/07 10:45:45;;;;;;;5.55;1.98;;;;;;;10.32;84.44;101817.28;6190070;23;20646;-76
2023/04/07 10:48:17;;;;;;;2.92;1.75;;;;;;;10.32;83.53;101819.94;6189474;23;20482;-76
2023/04/07 10:50:45;;;;;;;4.45;1.77;;;;;;;10.31;83.40;101823.00;6189894;23;20021;-78
2023/04/07 10:53:14;;;;;;;4.40;2.10;;;;;;;10.28;82.81;101819.25;6162954;23;20463;-76
2023/04/07 10:55:45;;;;;;;2.35;1.95;;;;;;;10.27;83.66;101817.75;6188320;23;20447;-77
2023/04/07 10:58:15;;;;;;;5.90;2.20;;;;;;;10.24;83.80;101821.25;6189591;23;20018;-77
2023/04/07 11:00:42;;;;;;;4.47;2.60;;;;;;;10.15;83.94;101826.31;6189965;23;20065;-77
2023/04/07 11:03:12;;;;;;;7.93;3.33;;;;;;;10.04;84.33;101823.84;6188948;23;20084;-77
2023/04/07 11:05:40;;;;;;;9.57;3.50;;;;;;;10.00;85.52;101822.41;6189979;23;20017;-77
2023/04/07 11:08:07;;;;;;;6.30;2.53;;;;;;;9.99;85.72;101834.25;6189241;23;20021;-77
2023/04/07 11:10:34;;;;;;;8.40;3.35;;;;;;;9.98;85.79;101825.53;6189595;23;20426;-77
2023/04/07 11:13:10;;;;;;;8.65;2.97;;;;;;;9.95;85.84;101833.56;6189349;23;20025;-77
2023/04/07 11:15:37;;;;;;;7.38;2.92;;;;;;;9.92;86.16;101834.38;6188358;23;20013;-77
2023/04/07 11:18:15;;;;;;;8.25;3.28;;;;;;;9.95;85.59;101829.00;6187188;23;20096;-77
2023/04/07 11:20:57;;;;;;;5.65;2.60;;;;;;;9.96;86.03;101835.06;6188163;23;20478;-77
2023/04/07 11:23:26;;;;;;;6.15;3.03;;;;;;;9.95;85.87;101836.22;6189699;23;20021;-77
2023/04/07 11:26:00;;;;;;;13.43;3.08;;;;;;;9.99;85.17;101832.34;6189646;23;20013;-77
2023/04/07 11:28:28;;;;;;;9.57;3.10;;;;;;;10.02;84.99;101836.81;6189679;23;20017;-77
2023/04/07 11:30:57;;;;;;;7.40;3.08;;;;;;;10.06;85.02;101834.09;6189099;23;20412;-77